createdAt,value
2022-11-29T00:02:03.088Z,6.88
2022-11-29T00:04:31.398Z,7.08
2022-11-29T00:06:59.606Z,6.93
2022-11-29T00:09:28.028Z,6.98
2022-11-29T00:12:15.662Z,7.00
2022-11-29T00:14:44.327Z,7.61
2022-11-29T00:17:12.738Z,7.97
2022-11-29T00:19:40.959Z,8.10
2022-11-29T00:22:09.285Z,8.18
2022-11-29T00:24:37.686Z,7.90
2022-11-29T00:27:07.347Z,8.25
2022-11-29T00:29:35.947Z,7.60
2022-11-29T00:32:04.309Z,7.43
2022-11-29T00:34:32.610Z,7.67
2022-11-29T00:37:00.841Z,7.37
2022-11-29T00:39:29.159Z,7.10
2022-11-29T00:41:57.499Z,6.46
2022-11-29T00:44:27.147Z,6.84
2022-11-29T00:46:55.460Z,6.75
2022-11-29T00:49:23.641Z,6.97
2022-11-29T00:51:51.827Z,7.01
2022-11-29T00:54:20.155Z,6.96
2022-11-29T00:56:48.333Z,7.28
2022-11-29T00:59:16.590Z,7.40
2022-11-29T01:01:46.370Z,7.53
2022-11-29T01:04:14.640Z,7.61
2022-11-29T01:06:43.014Z,7.03
2022-11-29T01:09:11.308Z,7.44
2022-11-29T01:11:39.728Z,7.28
2022-11-29T01:14:07.906Z,7.36
2022-11-29T01:16:36.461Z,7.25
2022-11-29T01:19:07.427Z,6.44
2022-11-29T01:21:35.657Z,6.79
2022-11-29T01:24:04.012Z,6.22
2022-11-29T01:26:32.880Z,6.34
2022-11-29T01:29:01.483Z,6.55
2022-11-29T01:31:31.884Z,6.20
2022-11-29T01:34:02.129Z,6.72
2022-11-29T01:36:31.904Z,6.37
2022-11-29T01:39:00.449Z,6.75
2022-11-29T01:41:30.906Z,6.35
2022-11-29T01:44:02.983Z,6.15
2022-11-29T01:46:32.676Z,5.98
2022-11-29T01:49:06.767Z,6.22
2022-11-29T01:51:38.963Z,6.32
2022-11-29T01:54:08.826Z,6.03
2022-11-29T01:56:39.095Z,6.21
2022-11-29T01:59:12.683Z,6.48
2022-11-29T02:01:41.045Z,6.71
2022-11-29T02:04:09.684Z,6.30
2022-11-29T02:06:40.947Z,6.79
2022-11-29T02:09:20.830Z,6.61
2022-11-29T02:12:15.400Z,6.56
2022-11-29T02:15:14.820Z,6.47
2022-11-29T02:17:58.289Z,6.72
2022-11-29T02:21:12.454Z,7.27
2022-11-29T02:24:16.099Z,7.58
2022-11-29T02:27:13.566Z,7.52
2022-11-29T02:30:32.246Z,7.37
2022-11-29T02:33:30.108Z,7.61
2022-11-29T02:36:24.948Z,7.82
2022-11-29T02:39:15.598Z,8.05
2022-11-29T02:41:59.620Z,7.74
2022-11-29T02:44:48.482Z,7.32
2022-11-29T02:47:27.332Z,7.07
2022-11-29T02:50:19.743Z,7.28
2022-11-29T02:53:01.583Z,7.89
2022-11-29T02:55:35.210Z,8.00
2022-11-29T02:58:12.702Z,7.97
2022-11-29T03:00:48.367Z,7.99
2022-11-29T03:03:23.097Z,7.80
2022-11-29T03:05:58.331Z,7.84
2022-11-29T03:08:35.312Z,7.31
2022-11-29T03:11:14.227Z,7.13
2022-11-29T03:13:52.835Z,7.09
2022-11-29T03:16:31.241Z,7.56
2022-11-29T03:19:07.260Z,7.63
2022-11-29T03:21:43.165Z,6.91
2022-11-29T03:24:17.265Z,6.20
2022-11-29T03:26:50.699Z,6.15
2022-11-29T03:29:28.335Z,5.79
2022-11-29T03:32:03.196Z,5.95
2022-11-29T03:34:55.702Z,6.57
2022-11-29T03:37:31.303Z,6.27
2022-11-29T03:40:06.221Z,6.72
2022-11-29T03:42:39.979Z,6.62
2022-11-29T03:45:15.875Z,6.48
2022-11-29T03:47:52.831Z,7.42
2022-11-29T03:50:25.089Z,7.56
2022-11-29T03:52:57.312Z,6.50
2022-11-29T03:55:34.436Z,6.88
2022-11-29T03:58:14.631Z,6.82
2022-11-29T04:01:03.547Z,6.89
2022-11-29T04:03:59.194Z,6.77
2022-11-29T04:06:48.187Z,6.62
2022-11-29T04:09:36.293Z,7.03
2022-11-29T04:12:37.188Z,7.11
2022-11-29T04:15:53.694Z,7.29
2022-11-29T04:19:00.281Z,6.51
2022-11-29T04:21:58.476Z,6.63
2022-11-29T04:25:02.171Z,6.73
2022-11-29T04:27:42.150Z,6.75
2022-11-29T04:30:22.178Z,6.96
2022-11-29T04:33:28.917Z,6.88
2022-11-29T04:36:27.177Z,5.89
2022-11-29T04:39:13.246Z,7.09
2022-11-29T04:41:59.422Z,6.91
2022-11-29T04:44:56.821Z,6.90
2022-11-29T04:47:52.406Z,6.65
2022-11-29T04:50:49.036Z,7.12
2022-11-29T04:53:40.180Z,7.20
2022-11-29T04:56:17.541Z,7.09
2022-11-29T04:58:54.770Z,7.39
2022-11-29T05:01:32.752Z,7.21
2022-11-29T05:04:08.410Z,6.72
2022-11-29T05:06:44.704Z,7.20
2022-11-29T05:09:24.590Z,7.41
2022-11-29T05:12:02.939Z,7.27
2022-11-29T05:14:49.887Z,7.02
2022-11-29T05:17:32.728Z,7.54
2022-11-29T05:20:24.463Z,7.63
2022-11-29T05:23:13.193Z,7.61
2022-11-29T05:25:46.646Z,7.46
2022-11-29T05:28:21.808Z,7.45
2022-11-29T05:31:20.825Z,7.27
2022-11-29T05:34:12.061Z,6.93
2022-11-29T05:36:50.374Z,6.65
2022-11-29T05:39:32.538Z,6.29
2022-11-29T05:42:27.368Z,7.01
2022-11-29T05:45:00.649Z,6.93
2022-11-29T05:47:37.240Z,6.48
2022-11-29T05:50:15.353Z,7.52
2022-11-29T05:52:52.266Z,7.50
2022-11-29T05:55:30.794Z,7.33
2022-11-29T05:58:03.692Z,7.03
2022-11-29T06:00:42.274Z,7.33
2022-11-29T06:03:20.618Z,7.20
2022-11-29T06:05:56.834Z,7.39
2022-11-29T06:08:36.553Z,7.41
2022-11-29T06:11:12.281Z,7.33
2022-11-29T06:13:56.849Z,7.45
2022-11-29T06:16:39.107Z,7.23
2022-11-29T06:19:41.173Z,7.44
2022-11-29T06:22:31.809Z,7.59
2022-11-29T06:25:18.814Z,7.66
2022-11-29T06:28:07.071Z,7.41
2022-11-29T06:30:51.098Z,7.23
2022-11-29T06:33:23.934Z,6.94
2022-11-29T06:36:01.567Z,6.82
2022-11-29T06:38:32.164Z,6.96
2022-11-29T06:41:02.414Z,6.91
2022-11-29T06:43:31.909Z,6.93
2022-11-29T06:46:07.144Z,6.87
2022-11-29T06:48:41.495Z,7.37
2022-11-29T06:51:18.629Z,7.32
2022-11-29T06:53:55.635Z,7.62
2022-11-29T06:56:31.570Z,7.56
2022-11-29T06:59:09.296Z,7.39
2022-11-29T07:01:46.238Z,6.85
2022-11-29T07:04:35.063Z,7.37
2022-11-29T07:07:03.771Z,7.68
2022-11-29T07:09:35.978Z,7.61
2022-11-29T07:12:04.919Z,7.44
2022-11-29T07:14:33.760Z,7.29
2022-11-29T07:17:10.178Z,6.65
2022-11-29T07:19:52.651Z,6.63
2022-11-29T07:22:36.673Z,7.28
2022-11-29T07:25:32.018Z,7.82
2022-11-29T07:28:14.690Z,8.27
2022-11-29T07:30:51.720Z,8.27
2022-11-29T07:33:27.897Z,8.31
2022-11-29T07:36:02.723Z,8.28
2022-11-29T07:38:51.510Z,8.42
2022-11-29T07:41:28.293Z,8.45
2022-11-29T07:44:06.627Z,8.73
2022-11-29T07:46:34.861Z,8.20
2022-11-29T07:49:03.139Z,8.66
2022-11-29T07:51:33.009Z,8.59
2022-11-29T07:54:01.582Z,8.72
2022-11-29T07:56:31.327Z,8.56
2022-11-29T07:58:59.585Z,8.74
2022-11-29T08:01:27.884Z,9.00
2022-11-29T08:03:56.145Z,9.32
2022-11-29T08:06:27.922Z,9.17
2022-11-29T08:08:58.910Z,9.22
2022-11-29T08:11:29.049Z,9.34
2022-11-29T08:13:59.277Z,8.78
2022-11-29T08:16:27.632Z,9.37
2022-11-29T08:18:55.912Z,9.29
2022-11-29T08:21:24.157Z,9.37
2022-11-29T08:23:52.571Z,9.47
2022-11-29T08:26:25.468Z,9.49
2022-11-29T08:28:57.079Z,9.19
2022-11-29T08:31:26.777Z,9.19
2022-11-29T08:33:55.000Z,9.14
2022-11-29T08:36:23.187Z,9.08
2022-11-29T08:38:57.178Z,9.19
2022-11-29T08:41:30.027Z,9.39
2022-11-29T08:43:58.337Z,9.59
2022-11-29T08:46:48.077Z,9.62
2022-11-29T08:49:16.338Z,9.71
2022-11-29T08:51:44.679Z,9.76
2022-11-29T08:54:12.541Z,9.49
2022-11-29T08:59:28.957Z,9.27
2022-11-29T09:01:58.674Z,9.92
2022-11-29T09:04:26.959Z,9.98
2022-11-29T09:06:55.432Z,9.65
2022-11-29T09:09:23.617Z,9.81
2022-11-29T09:11:51.754Z,9.96
2022-11-29T09:14:22.335Z,10.17
2022-11-29T09:16:50.627Z,10.23
2022-11-29T09:19:20.447Z,10.22
2022-11-29T09:21:48.758Z,9.97
2022-11-29T09:24:17.025Z,10.27
2022-11-29T09:26:48.375Z,10.24
2022-11-29T09:29:17.789Z,10.38
2022-11-29T09:31:46.274Z,9.85
2022-11-29T09:34:15.205Z,9.66
2022-11-29T09:36:45.300Z,9.90
2022-11-29T09:39:13.583Z,10.13
2022-11-29T09:42:09.863Z,10.11
2022-11-29T09:44:48.746Z,9.24
2022-11-29T09:47:28.551Z,9.25
2022-11-29T09:50:18.126Z,9.66
2022-11-29T09:52:55.423Z,9.48
2022-11-29T09:55:47.839Z,9.61
2022-11-29T09:58:21.805Z,9.17
2022-11-29T10:00:53.438Z,8.99
2022-11-29T10:03:26.527Z,9.01
2022-11-29T10:06:00.043Z,9.06
2022-11-29T10:08:37.744Z,8.32
2022-11-29T10:11:19.741Z,8.87
2022-11-29T10:13:53.299Z,9.13
2022-11-29T10:16:29.593Z,9.46
2022-11-29T10:19:05.016Z,9.10
2022-11-29T10:21:37.280Z,9.27
2022-11-29T10:24:14.897Z,8.43
2022-11-29T10:26:43.705Z,9.83
2022-11-29T10:29:15.520Z,9.75
2022-11-29T10:31:49.485Z,9.43
2022-11-29T10:34:19.976Z,9.93
2022-11-29T10:36:50.421Z,9.61
2022-11-29T10:39:24.473Z,8.98
2022-11-29T10:42:01.131Z,9.69
2022-11-29T10:44:30.041Z,10.11
2022-11-29T10:46:59.595Z,9.97
2022-11-29T10:49:31.972Z,10.28
2022-11-29T10:52:00.242Z,10.51
2022-11-29T10:54:38.363Z,10.48
2022-11-29T10:57:14.556Z,10.38
2022-11-29T10:59:44.755Z,10.71
2022-11-29T11:02:20.239Z,10.37
2022-11-29T11:04:50.242Z,10.33
2022-11-29T11:07:25.543Z,10.32
2022-11-29T11:09:57.979Z,10.17
2022-11-29T11:12:30.595Z,10.88
2022-11-29T11:15:27.714Z,10.90
2022-11-29T11:18:00.982Z,10.81
2022-11-29T11:20:33.043Z,10.29
2022-11-29T11:23:03.800Z,11.09
2022-11-29T11:25:36.056Z,11.46
2022-11-29T11:28:18.248Z,11.11
2022-11-29T11:30:52.251Z,11.25
2022-11-29T11:33:25.272Z,10.99
2022-11-29T11:36:09.434Z,11.08
2022-11-29T11:38:39.241Z,11.25
2022-11-29T11:41:44.847Z,11.65
2022-11-29T11:44:46.378Z,11.29
2022-11-29T11:47:18.105Z,11.72
2022-11-29T11:49:51.788Z,12.01
2022-11-29T11:52:23.372Z,11.69
2022-11-29T11:54:54.851Z,11.68
2022-11-29T11:57:26.391Z,11.82
2022-11-29T12:00:02.042Z,11.05
2022-11-29T12:02:39.636Z,11.85
2022-11-29T12:05:14.641Z,11.93
2022-11-29T12:10:37.773Z,11.98
2022-11-29T12:13:08.458Z,11.96
2022-11-29T12:15:39.940Z,11.76
2022-11-29T12:18:14.185Z,11.90
2022-11-29T12:20:47.898Z,11.77
2022-11-29T12:23:30.301Z,11.11
2022-11-29T12:26:04.249Z,11.89
2022-11-29T12:28:36.210Z,11.89
2022-11-29T12:31:21.679Z,11.66
2022-11-29T12:33:57.848Z,11.70
2022-11-29T12:36:37.475Z,11.31
2022-11-29T12:39:20.561Z,11.47
2022-11-29T12:41:57.354Z,11.21
2022-11-29T12:44:44.656Z,11.22
2022-11-29T12:47:39.431Z,11.24
2022-11-29T12:50:33.522Z,11.24
2022-11-29T12:53:15.694Z,11.08
2022-11-29T12:55:52.523Z,10.81
2022-11-29T12:58:28.510Z,11.23
2022-11-29T13:01:08.938Z,11.14
2022-11-29T13:03:45.446Z,11.26
2022-11-29T13:06:21.931Z,11.47
2022-11-29T13:09:04.284Z,11.66
2022-11-29T13:11:37.483Z,11.66
2022-11-29T13:14:41.535Z,11.39
2022-11-29T13:17:06.039Z,11.16
2022-11-29T13:19:43.957Z,11.59
2022-11-29T13:22:18.508Z,11.42
2022-11-29T13:24:52.121Z,11.55
2022-11-29T13:27:26.435Z,11.51
2022-11-29T13:29:56.192Z,11.42
2022-11-29T13:32:38.731Z,11.35
2022-11-29T13:35:19.291Z,11.08
2022-11-29T13:37:55.542Z,11.06
2022-11-29T13:40:37.301Z,11.29
2022-11-29T13:43:18.094Z,11.49
2022-11-29T13:45:53.498Z,11.60
2022-11-29T13:48:37.235Z,11.51
2022-11-29T13:51:39.044Z,11.57
2022-11-29T13:54:08.603Z,11.62
2022-11-29T13:56:46.609Z,11.54
2022-11-29T13:59:21.670Z,11.49
2022-11-29T14:01:53.839Z,11.46
2022-11-29T14:04:37.111Z,11.44
2022-11-29T14:07:12.449Z,11.43
2022-11-29T14:09:50.667Z,11.47
2022-11-29T14:12:37.251Z,11.43
2022-11-29T14:15:25.682Z,11.41
2022-11-29T14:17:56.618Z,10.95
2022-11-29T14:20:59.638Z,10.80
2022-11-29T14:23:40.542Z,11.01
2022-11-29T14:26:32.748Z,11.14
2022-11-29T14:29:01.674Z,10.97
2022-11-29T14:31:54.651Z,10.46
2022-11-29T14:34:46.399Z,10.89
2022-11-29T14:37:48.849Z,10.88
2022-11-29T14:40:28.660Z,11.07
2022-11-29T14:42:57.238Z,11.12
2022-11-29T14:45:29.404Z,11.08
2022-11-29T14:47:58.622Z,10.97
2022-11-29T14:50:36.298Z,10.92
2022-11-29T14:53:07.866Z,11.08
2022-11-29T14:55:38.660Z,10.85
2022-11-29T14:58:18.015Z,10.74
2022-11-29T15:01:10.636Z,11.01
2022-11-29T15:03:52.554Z,10.96
2022-11-29T15:06:28.976Z,10.94
2022-11-29T15:09:07.234Z,11.07
2022-11-29T15:11:47.964Z,11.05
2022-11-29T15:14:24.434Z,11.10
2022-11-29T15:17:04.054Z,11.06
2022-11-29T15:19:59.224Z,10.97
2022-11-29T15:22:29.933Z,11.00
2022-11-29T15:25:03.801Z,10.83
2022-11-29T15:27:35.088Z,10.60
2022-11-29T15:30:20.042Z,10.43
2022-11-29T15:32:48.615Z,10.45
2022-11-29T15:35:19.709Z,10.64
2022-11-29T15:37:49.857Z,10.63
2022-11-29T15:40:21.062Z,9.89
2022-11-29T15:42:53.446Z,9.97
2022-11-29T15:45:29.820Z,9.95
2022-11-29T15:48:13.673Z,9.92
2022-11-29T15:50:46.214Z,9.68
2022-11-29T15:53:19.767Z,9.48
2022-11-29T15:55:51.897Z,9.34
2022-11-29T15:58:21.172Z,9.47
2022-11-29T16:00:50.756Z,9.92
2022-11-29T16:03:25.440Z,9.25
2022-11-29T16:06:01.470Z,9.55
2022-11-29T16:08:34.604Z,9.84
2022-11-29T16:11:06.734Z,9.67
2022-11-29T16:13:37.971Z,9.88
2022-11-29T16:16:15.567Z,10.24
2022-11-29T16:18:45.524Z,9.84
2022-11-29T16:21:25.640Z,10.26
2022-11-29T16:23:54.742Z,10.01
2022-11-29T16:26:28.453Z,9.57
2022-11-29T16:28:58.156Z,9.48
2022-11-29T16:31:33.264Z,9.20
2022-11-29T16:34:09.387Z,9.20
2022-11-29T16:36:38.272Z,9.03
2022-11-29T16:39:16.457Z,9.21
2022-11-29T16:42:02.620Z,9.12
2022-11-29T16:45:01.592Z,8.73
2022-11-29T16:47:32.248Z,8.94
2022-11-29T16:50:15.972Z,9.00
2022-11-29T16:52:44.551Z,9.38
2022-11-29T16:55:12.978Z,9.31
2022-11-29T16:57:42.806Z,9.66
2022-11-29T17:00:13.648Z,9.75
2022-11-29T17:02:41.897Z,9.97
2022-11-29T17:05:10.461Z,9.86
2022-11-29T17:07:41.358Z,9.73
2022-11-29T17:10:11.988Z,10.05
2022-11-29T17:12:43.478Z,10.27
2022-11-29T17:15:17.822Z,10.31
2022-11-29T17:17:46.172Z,10.46
2022-11-29T17:20:15.418Z,10.41
2022-11-29T17:22:43.796Z,10.17
2022-11-29T17:25:12.369Z,9.99
2022-11-29T17:27:40.540Z,10.11
2022-11-29T17:30:11.444Z,10.23
2022-11-29T17:32:41.317Z,9.88
2022-11-29T17:35:10.287Z,10.16
2022-11-29T17:37:38.693Z,10.18
2022-11-29T17:40:08.388Z,10.15
2022-11-29T17:42:36.630Z,9.49
2022-11-29T17:45:05.952Z,8.44
2022-11-29T17:47:34.775Z,8.94
2022-11-29T17:50:04.639Z,8.98
2022-11-29T17:52:32.912Z,8.83
2022-11-29T17:55:01.533Z,8.75
2022-11-29T17:57:29.769Z,8.83
2022-11-29T17:59:58.183Z,8.93
2022-11-29T18:02:26.902Z,9.04
2022-11-29T18:04:55.340Z,8.78
2022-11-29T18:07:25.111Z,8.73
2022-11-29T18:09:53.401Z,8.93
2022-11-29T18:12:22.655Z,9.18
2022-11-29T18:14:51.463Z,9.52
2022-11-29T18:17:19.620Z,9.65
2022-11-29T18:19:48.386Z,9.76
2022-11-29T18:22:16.738Z,9.89
2022-11-29T18:24:46.430Z,9.95
2022-11-29T18:27:14.861Z,9.58
2022-11-29T18:29:43.521Z,9.88
2022-11-29T18:32:12.317Z,9.89
2022-11-29T18:34:40.694Z,9.84
2022-11-29T18:37:15.293Z,9.98
2022-11-29T18:39:48.260Z,9.91
2022-11-29T18:42:16.699Z,9.93
2022-11-29T18:44:46.298Z,9.94
2022-11-29T18:47:14.787Z,9.95
2022-11-29T18:49:43.108Z,10.00
2022-11-29T18:52:11.486Z,9.58
2022-11-29T18:54:39.666Z,9.75
2022-11-29T18:57:09.548Z,9.83
2022-11-29T18:59:37.778Z,9.87
2022-11-29T19:02:06.353Z,9.91
2022-11-29T19:04:34.661Z,9.72
2022-11-29T19:07:02.933Z,9.85
2022-11-29T19:09:31.204Z,9.51
2022-11-29T19:11:59.531Z,9.78
2022-11-29T19:14:30.559Z,9.94
2022-11-29T19:16:58.827Z,10.04
2022-11-29T19:19:27.097Z,10.00
2022-11-29T19:21:55.406Z,10.05
2022-11-29T19:24:24.262Z,9.62
2022-11-29T19:26:55.621Z,9.32
2022-11-29T19:29:27.593Z,8.80
2022-11-29T19:31:57.455Z,8.88
2022-11-29T19:34:26.259Z,8.81
2022-11-29T19:36:54.818Z,8.78
2022-11-29T19:39:23.240Z,8.43
2022-11-29T19:41:51.900Z,8.67
2022-11-29T19:44:21.332Z,9.03
2022-11-29T19:46:51.265Z,8.91
2022-11-29T19:49:21.525Z,8.97
2022-11-29T19:51:50.110Z,9.25
2022-11-29T19:54:18.504Z,9.17
2022-11-29T19:56:46.832Z,9.60
2022-11-29T19:59:15.330Z,9.75
2022-11-29T20:01:43.828Z,9.76
2022-11-29T20:04:16.764Z,9.87
2022-11-29T20:06:46.442Z,9.89
2022-11-29T20:09:15.556Z,9.96
2022-11-29T20:11:44.915Z,9.99
2022-11-29T20:14:14.962Z,9.83
2022-11-29T20:16:43.981Z,9.04
2022-11-29T20:19:14.619Z,9.35
2022-11-29T20:21:45.697Z,10.01
2022-11-29T20:24:15.813Z,9.59
2022-11-29T20:26:46.659Z,9.40
2022-11-29T20:29:15.426Z,9.56
2022-11-29T20:31:50.005Z,9.70
2022-11-29T20:34:19.153Z,9.69
2022-11-29T20:37:07.523Z,9.70
2022-11-29T20:39:47.262Z,9.82
2022-11-29T20:42:54.250Z,9.25
2022-11-29T20:45:24.278Z,9.16
2022-11-29T20:47:58.246Z,9.23
2022-11-29T20:50:31.586Z,9.37
2022-11-29T20:53:19.531Z,9.02
2022-11-29T20:55:49.672Z,8.95
2022-11-29T20:58:21.262Z,9.13
2022-11-29T21:00:52.624Z,8.11
2022-11-29T21:03:24.378Z,9.36
2022-11-29T21:05:53.290Z,9.09
2022-11-29T21:08:23.099Z,9.81
2022-11-29T21:10:53.559Z,9.79
2022-11-29T21:13:24.073Z,9.49
2022-11-29T21:15:53.191Z,9.73
2022-11-29T21:18:24.067Z,9.26
2022-11-29T21:21:07.747Z,9.63
2022-11-29T21:23:52.114Z,9.77
2022-11-29T21:26:24.956Z,9.70
2022-11-29T21:29:01.227Z,9.40
2022-11-29T21:31:33.401Z,9.90
2022-11-29T21:34:02.836Z,9.96
2022-11-29T21:36:39.729Z,9.95
2022-11-29T21:39:09.484Z,9.97
2022-11-29T21:41:39.403Z,10.00
2022-11-29T21:44:16.819Z,9.99
2022-11-29T21:46:48.875Z,10.01
2022-11-29T21:49:17.197Z,9.99
2022-11-29T21:51:46.197Z,9.95
2022-11-29T21:54:18.991Z,10.00
2022-11-29T21:56:48.980Z,9.95
2022-11-29T21:59:17.298Z,9.94
2022-11-29T22:01:45.750Z,9.91
2022-11-29T22:04:13.999Z,9.93
2022-11-29T22:06:42.299Z,10.02
2022-11-29T22:09:11.586Z,10.07
2022-11-29T22:11:39.858Z,10.00
2022-11-29T22:14:18.334Z,10.10
2022-11-29T22:16:48.778Z,10.06
2022-11-29T22:19:18.417Z,10.07
2022-11-29T22:21:48.420Z,9.92
2022-11-29T22:24:18.974Z,9.61
2022-11-29T22:26:47.799Z,9.63
2022-11-29T22:29:17.824Z,9.50
2022-11-29T22:31:47.737Z,9.80
2022-11-29T22:34:16.201Z,9.73
2022-11-29T22:36:44.554Z,9.89
2022-11-29T22:39:13.390Z,10.02
2022-11-29T22:41:44.286Z,9.96
2022-11-29T22:44:18.222Z,9.47
2022-11-29T22:46:46.521Z,9.56
2022-11-29T22:49:14.771Z,9.57
2022-11-29T22:51:43.118Z,9.50
2022-11-29T22:54:15.527Z,9.99
2022-11-29T22:56:45.666Z,10.07
2022-11-29T22:59:14.315Z,9.59
2022-11-29T23:01:44.286Z,10.04
2022-11-29T23:04:13.858Z,9.87
2022-11-29T23:06:43.727Z,10.20
2022-11-29T23:09:16.409Z,10.22
2022-11-29T23:11:46.322Z,10.20
2022-11-29T23:14:14.977Z,10.23
2022-11-29T23:16:44.746Z,10.22
2022-11-29T23:19:13.314Z,10.15
2022-11-29T23:21:44.787Z,9.63
2022-11-29T23:24:13.658Z,10.16
2022-11-29T23:26:44.866Z,10.37
2022-11-29T23:29:15.366Z,10.04
2022-11-29T23:31:45.221Z,10.08
2022-11-29T23:34:13.658Z,10.08
2022-11-29T23:36:42.199Z,10.02
2022-11-29T23:39:10.517Z,10.13
2022-11-29T23:41:38.780Z,9.84
2022-11-29T23:44:08.774Z,10.13
2022-11-29T23:46:37.482Z,9.71
2022-11-29T23:49:07.137Z,9.65
2022-11-29T23:51:35.377Z,9.18
2022-11-29T23:54:03.750Z,9.11
2022-11-29T23:56:35.569Z,8.81
2022-11-29T23:59:04.109Z,8.81
